Airfield :
LOGIN :

Register | Disclaimer

   EN    FR    IT 

 










Legend :    VFR   Marginal VFR   IFR   Intensive IFR   Very Intensive IFR
Visi :
Ceiling :
>= 8 km
>= 3000ft
5 to 8 km
1000 to 3000 ft
1500m to 5 km
500 to 1000 ft
800 to 1500m
200 to 500 ft
< 800m
< 200 ft
Symbols :   Thunderstorms  Fog  Heavy snow  Heavy precipitations  Wind > 20 kt
SIGMETs :     Misc.  Thunderstorms  Icing  Turbulence  Mountain Waves  Volcanic Ashes






- Airport Elevation : 1363 ft


ETIC - Grafenwohr Army Air Field

CURRENT METAR :
  • 172152Z AUTO 31003KT 9999 -RA SCT023 OVC032 01/00 A3047 RMK AO2 RAB2058E04RAB04E04RAB52 SLP342 FZRANO $

EXPIRED METARs :
  • 172119Z AUTO 00000KT 9999 OVC031 01/M00 A3046 RMK AO2 RAB2058E04RAB04E04 SLP339 FZRANO $
  • 172104Z AUTO 00000KT 9999 OVC026 00/M00 A3046 RMK AO2 RAB2058E04RAB04 SLP339 FZRANO $
  • 172058Z AUTO 00000KT 9999 -RA OVC024 00/M00 A3046 RMK AO2 RAB58 SLP339 FZRANO $
  • 172053Z AUTO 00000KT 9999 CLR 00/M00 A3046 RMK AO2 DZB01E05RAB05E30SNB30E53 SLP339 FZRANO $
  • 172030Z AUTO 00000KT 6000 -SN BR SCT005 OVC016 01/00 A3046 RMK AO2 DZB01E05RAB05E30SNB30 CIG 005V016 SLP339 FZRANO $
  • 172016Z AUTO 36003KT 8000 +RA BR BKN005 BKN015 OVC027 02/01 A3045 RMK AO2 DZB01E05RAB05 PRESRR SLP334 FZRANO $
  • 171956Z AUTO 28005KT 9999 FEW008 SCT027 BKN036 OVC045 02/01 A3043 RMK AO2 RAE39RAB39E39 PRESRR SLP327 P0002 T00170011 FZRANO $
  • 171939Z AUTO 24006KT 9999 FEW007 FEW013 SCT022 OVC044 02/01 A3041 RMK AO2 RAE39RAB39 SLP320 FZRANO $
  • 171926Z AUTO 26005KT 9999 -RA SCT007 BKN012 OVC022 02/01 A3041 RMK AO2 CIG 006V012 SLP320 FZRANO $
  • 171856Z AUTO 30007KT 9999 -RA OVC006 02/01 A3041 RMK AO2 RAE05DZB05E08DZB08E08RAB23 PRESRR SLP320 P0003 T00180011 FZRANO $

Expired Forecast.



MET'MAP, your aeronautical weather chart ! - Copyright ORBIFLY December 2007 - Disclaimer

ORBIFLY MET'MAP TEAM :

Programming & Development : Alexandra Zaïnal
Concept & original design : Baudouin d'Aumeries
Assistance for programming : Marc-Olivier Méhu
Technical & hardware support : Manuel Goepfert

Contact : metmap@orbifly.com




SOURCES & CREDITS :

   NOAA